Time;durP1;ratioP1;P1;durP2;ratioP2;P2;SDS_P1;SDS_P2;PMS_P1;PMS_P2;Temp;Humidity;BMP_temperature;BMP_pressure;BME280_temperature;BME280_humidity;BME280_pressure;Samples;Min_cycle;Max_cycle;Signal;HPM_P1;HPM_P2
2022/07/31 06:22:57;;;;;;;;;18.25;14.25;;;;;31.30;44.50;100490.28;146607;569;46916;-70
2022/07/31 06:25:53;;;;;;;;;18.00;15.50;;;;;31.38;44.36;100482.88;146610;569;46010;-69
2022/07/31 06:28:47;;;;;;;;;16.75;14.50;;;;;31.44;44.47;100481.75;146609;650;46012;-68
2022/07/31 06:31:50;;;;;;;;;16.75;14.75;;;;;31.54;43.97;100483.12;146612;611;46010;-68
2022/07/31 06:34:52;;;;;;;;;13.00;11.75;;;;;31.66;43.78;100479.97;146607;604;46016;-68
2022/07/31 06:37:47;;;;;;;;;14.00;13.25;;;;;31.77;44.07;100474.16;146608;565;46020;-70
2022/07/31 06:40:50;;;;;;;;;13.00;11.75;;;;;31.83;43.43;100475.72;146607;652;46016;-70
2022/07/31 06:43:43;;;;;;;;;16.50;14.75;;;;;31.93;43.79;100479.81;146608;722;46020;-69
2022/07/31 06:46:35;;;;;;;;;17.00;13.25;;;;;31.97;43.77;100474.25;146606;579;46014;-69
2022/07/31 06:49:39;;;;;;;;;14.75;13.75;;;;;32.00;43.87;100470.59;146605;579;46028;-69
2022/07/31 06:52:31;;;;;;;;;12.75;11.50;;;;;32.16;43.03;100468.13;146606;579;46013;-69
2022/07/31 06:55:37;;;;;;;;;13.50;12.75;;;;;32.28;42.39;100466.75;146607;652;46021;-69
2022/07/31 06:58:32;;;;;;;;;10.75;10.75;;;;;32.37;42.02;100469.03;146604;641;46019;-69
2022/07/31 07:01:28;;;;;;;;;12.00;10.00;;;;;32.35;41.91;100468.22;146609;649;46010;-69
2022/07/31 07:04:20;;;;;;;;;11.50;11.50;;;;;32.28;40.96;100472.97;146605;571;46016;-70
2022/07/31 07:07:27;;;;;;;;;10.50;10.00;;;;;32.17;41.00;100473.41;146610;605;45020;-72
2022/07/31 07:10:28;;;;;;;;;9.75;9.00;;;;;32.14;42.12;100473.56;146607;636;46012;-70
2022/07/31 07:13:21;;;;;;;;;10.25;10.25;;;;;32.20;40.13;100472.44;146603;657;46920;-71
2022/07/31 07:16:13;;;;;;;;;11.75;11.75;;;;;32.28;40.57;100464.94;146608;655;46013;-69
2022/07/31 07:19:11;;;;;;;;;9.50;9.50;;;;;32.42;39.84;100464.31;146608;674;46021;-70
2022/07/31 07:22:03;;;;;;;;;8.75;8.75;;;;;32.45;38.63;100466.91;146609;613;46012;-71
2022/07/31 07:25:11;;;;;;;;;11.50;11.00;;;;;32.44;38.56;100470.53;146605;735;46021;-70
2022/07/31 07:28:07;;;;;;;;;11.25;10.25;;;;;32.44;38.87;100467.84;146606;588;46012;-71
2022/07/31 07:31:02;;;;;;;;;10.50;9.75;;;;;32.46;39.02;100476.69;146610;573;46011;-69
2022/07/31 07:34:07;;;;;;;;;;;;;;;;;;;;;
2022/07/31 07:37:05;;;;;;;;;14.00;10.75;;;;;32.46;38.56;100478.50;146609;579;46013;-70
2022/07/31 07:40:04;;;;;;;;;10.25;10.25;;;;;32.39;39.44;100468.00;146605;609;46016;-70
2022/07/31 07:42:58;;;;;;;;;10.50;10.50;;;;;32.39;38.88;100472.50;146609;573;46010;-70
2022/07/31 07:45:57;;;;;;;;;12.75;10.25;;;;;32.46;38.73;100474.00;146608;586;46016;-70
2022/07/31 07:48:55;;;;;;;;;13.00;12.50;;;;;32.55;39.25;100470.06;146607;592;46010;-70
2022/07/31 07:51:51;;;;;;;;;9.50;9.50;;;;;32.65;39.62;100472.28;146607;570;46012;-69
2022/07/31 07:54:53;;;;;;;;;13.00;11.50;;;;;32.79;38.69;100468.09;146608;611;46023;-70
2022/07/31 07:57:50;;;;;;;;;13.00;10.50;;;;;32.87;38.23;100474.87;146606;563;46923;-69
2022/07/31 08:00:55;;;;;;;;;11.25;10.25;;;;;32.93;39.50;100476.41;146600;594;47008;-68
2022/07/31 08:03:47;;;;;;;;;10.75;10.75;;;;;32.61;38.24;100391.94;146606;582;46012;-69
2022/07/31 08:06:49;;;;;;;;;11.75;11.00;;;;;33.12;39.25;100460.34;146608;587;46010;-70
2022/07/31 08:09:47;;;;;;;;;11.25;11.00;;;;;33.22;38.36;100461.66;146607;582;46016;-71
2022/07/31 08:13:02;;;;;;;;;8.50;8.50;;;;;32.46;38.85;100318.34;146607;565;46020;-70
2022/07/31 08:15:57;;;;;;;;;11.50;10.50;;;;;33.45;37.41;100462.38;146605;603;46924;-70
2022/07/31 08:18:50;;;;;;;;;10.50;10.25;;;;;33.53;37.89;100468.31;146607;589;47020;-70
2022/07/31 08:21:34;;;;;;;;;9.25;9.25;;;;;33.64;38.47;100457.87;146605;663;46016;-70
2022/07/31 08:24:20;;;;;;;;;12.25;11.75;;;;;33.77;36.81;100455.44;146608;654;46021;-69
2022/07/31 08:29:59;;;;;;;;;11.75;11.50;;;;;33.89;37.48;100454.84;146608;601;46020;-68
2022/07/31 08:33:03;;;;;;;;;7.75;7.50;;;;;33.95;36.71;100457.22;146605;604;47016;-70
2022/07/31 08:36:07;;;;;;;;;12.25;11.50;;;;;33.96;37.96;100455.44;146608;598;46010;-71
2022/07/31 08:38:56;;;;;;;;;11.00;10.00;;;;;33.93;37.51;100459.16;146606;565;46017;-69
2022/07/31 08:41:51;;;;;;;;;11.50;9.75;;;;;33.86;36.99;100457.69;146608;611;46020;-70
2022/07/31 08:44:49;;;;;;;;;9.75;8.75;;;;;33.86;36.35;100452.31;146605;653;46013;-69
2022/07/31 08:47:57;;;;;;;;;9.00;9.00;;;;;33.88;37.56;100450.44;146609;616;46010;-69
2022/07/31 08:51:02;;;;;;;;;11.50;10.25;;;;;33.97;37.01;100454.47;146606;629;46016;-70
2022/07/31 08:53:56;;;;;;;;;12.00;11.00;;;;;34.15;35.83;100440.13;146610;582;46010;-70
2022/07/31 08:57:03;;;;;;;;;10.00;9.00;;;;;34.29;34.46;100452.00;146606;637;46016;-69
2022/07/31 08:59:56;;;;;;;;;12.25;10.00;;;;;34.21;33.96;100455.09;146610;626;46010;-71
2022/07/31 09:02:54;;;;;;;;;9.75;9.50;;;;;34.07;35.09;100450.41;146608;670;46016;-73
2022/07/31 09:05:53;;;;;;;;;11.25;11.00;;;;;34.00;35.80;100452.50;146609;605;46020;-72
2022/07/31 09:08:54;;;;;;;;;13.00;12.50;;;;;33.97;34.23;100460.72;146606;569;46016;-73
2022/07/31 09:12:00;;;;;;;;;7.00;5.25;;;;;33.94;35.29;100458.19;146608;632;46020;-73
2022/07/31 09:15:08;;;;;;;;;13.00;13.00;;;;;33.94;34.70;100452.81;146605;596;46016;-72
2022/07/31 09:18:04;;;;;;;;;11.75;9.75;;;;;33.85;34.64;100455.97;146606;598;46020;-74
2022/07/31 09:21:04;;;;;;;;;10.75;10.75;;;;;33.73;35.81;100448.50;146607;657;46016;-69
2022/07/31 09:24:09;;;;;;;;;10.50;10.50;;;;;33.70;36.70;100445.97;146608;643;46020;-71
2022/07/31 09:27:16;;;;;;;;;11.25;11.00;;;;;33.79;37.40;100441.00;146605;578;46012;-73
2022/07/31 09:30:18;;;;;;;;;9.50;9.25;;;;;32.96;37.52;100279.31;146608;589;46033;-73
2022/07/31 09:33:27;;;;;;;;;9.25;9.25;;;;;33.94;38.16;100435.81;146604;570;46923;-70
2022/07/31 09:36:25;;;;;;;;;13.25;12.50;;;;;33.99;38.21;100445.38;146607;629;46020;-68
2022/07/31 09:39:26;;;;;;;;;11.25;10.00;;;;;33.87;38.97;100442.44;146605;576;46016;-71
2022/07/31 09:42:47;;;;;;;;;14.00;13.25;;;;;33.57;39.60;100438.50;146609;643;46020;-71
2022/07/31 09:45:44;;;;;;;;;11.00;11.00;;;;;33.50;40.14;100425.44;146604;621;46017;-71
2022/07/31 09:49:07;;;;;;;;;;;;;;;;;;;;;
2022/07/31 09:52:10;;;;;;;;;10.00;9.00;;;;;33.53;39.97;100434.22;146607;567;46013;-72
2022/07/31 09:55:21;;;;;;;;;12.50;12.25;;;;;33.34;40.56;100427.97;146608;626;46010;-71
2022/07/31 09:58:25;;;;;;;;;11.25;10.75;;;;;33.19;41.09;100428.69;146605;618;46016;-71
2022/07/31 10:01:22;;;;;;;;;12.00;10.50;;;;;33.12;41.61;100425.44;146608;678;46012;-73
2022/07/31 10:04:28;;;;;;;;;12.75;11.25;;;;;33.23;41.22;100422.22;146606;597;46016;-73
2022/07/31 10:07:24;;;;;;;;;12.25;12.25;;;;;33.37;40.61;100413.53;146609;693;46010;-74
2022/07/31 10:10:18;;;;;;;;;9.75;9.00;;;;;33.44;40.31;100420.31;146607;607;46016;-71
2022/07/31 10:13:16;;;;;;;;;12.25;9.50;;;;;33.45;40.75;100417.56;146607;670;46020;-71
2022/07/31 10:16:15;;;;;;;;;10.25;10.25;;;;;33.56;40.35;100417.94;146606;648;46012;-73
2022/07/31 10:19:16;;;;;;;;;12.75;11.00;;;;;33.78;40.39;100416.87;146603;574;46919;-71
2022/07/31 10:22:14;;;;;;;;;11.75;11.75;;;;;33.94;40.63;100408.91;146607;680;46013;-69
2022/07/31 10:25:20;;;;;;;;;11.00;11.00;;;;;34.02;40.17;100412.97;146609;607;46020;-71
2022/07/31 10:28:18;;;;;;;;;12.50;11.25;;;;;34.10;40.28;100403.63;146605;605;46012;-72
2022/07/31 10:31:15;;;;;;;;;9.75;9.75;;;;;34.12;40.40;100391.84;146607;564;47010;-70
2022/07/31 10:34:22;;;;;;;;;10.00;10.00;;;;;34.11;40.78;100402.69;146607;584;46012;-70
2022/07/31 10:37:51;;;;;;;;;9.25;9.00;;;;;34.14;40.48;100394.44;146606;576;46021;-70
2022/07/31 10:41:05;;;;;;;;;13.75;12.25;;;;;34.08;40.97;100392.94;146605;571;46018;-70
2022/07/31 10:44:46;;;;;;;;;11.75;10.75;;;;;34.11;41.17;100390.09;146609;617;46021;-70
2022/07/31 10:48:09;;;;;;;;;12.25;12.25;;;;;34.13;40.47;100388.19;146604;586;46016;-70
2022/07/31 10:51:27;;;;;;;;;13.75;13.00;;;;;34.13;41.17;100381.97;146607;595;46010;-70
2022/07/31 10:54:24;;;;;;;;;11.25;10.25;;;;;34.12;41.71;100382.91;146606;702;46012;-70
2022/07/31 10:57:43;;;;;;;;;11.00;11.00;;;;;34.05;40.84;100382.34;146611;573;46010;-70
2022/07/31 11:00:35;;;;;;;;;11.00;11.00;;;;;34.01;41.94;100381.59;146607;694;46012;-76
2022/07/31 11:03:27;;;;;;;;;12.25;10.00;;;;;33.99;42.38;100378.12;146606;770;46020;-72
2022/07/31 11:06:23;;;;;;;;;13.25;11.00;;;;;33.93;42.60;100372.22;146607;585;46012;-72
2022/07/31 11:09:26;;;;;;;;;9.50;9.50;;;;;33.88;43.32;100371.56;146608;592;46010;-74
2022/07/31 11:12:27;;;;;;;;;12.25;12.25;;;;;33.86;42.46;100368.06;146607;691;46015;-72
2022/07/31 11:15:28;;;;;;;;;10.50;9.50;;;;;33.87;42.47;100375.22;146607;640;46021;-72
2022/07/31 11:18:28;;;;;;;;;11.75;11.75;;;;;33.93;43.01;100374.91;146607;649;46014;-72
2022/07/31 11:21:42;;;;;;;;;10.00;10.00;;;;;33.97;42.10;100371.94;146605;700;46021;-73
2022/07/31 11:24:39;;;;;;;;;8.00;8.00;;;;;33.97;42.36;100373.78;146606;612;46036;-71
2022/07/31 11:27:44;;;;;;;;;10.50;9.75;;;;;33.99;41.67;100375.44;146607;709;46010;-73
2022/07/31 11:31:24;;;;;;;;;9.75;9.00;;;;;33.07;41.54;100218.78;146609;644;46012;-73
2022/07/31 11:34:24;;;;;;;;;14.00;13.75;;;;;34.01;41.03;100378.91;146608;614;46020;-74
2022/07/31 11:37:25;;;;;;;;;13.25;13.25;;;;;34.03;39.94;100371.66;146607;627;46012;-72
2022/07/31 11:40:24;;;;;;;;;13.25;12.00;;;;;34.05;40.08;100370.72;146608;632;46020;-73
2022/07/31 11:43:19;;;;;;;;;8.75;8.75;;;;;34.10;39.31;100363.28;146607;676;46012;-74
2022/07/31 11:46:15;;;;;;;;;13.25;13.00;;;;;34.13;39.88;100360.44;146610;580;46012;-73
2022/07/31 11:49:10;;;;;;;;;12.25;12.25;;;;;34.15;39.67;100355.84;146605;686;46016;-75
2022/07/31 11:52:23;;;;;;;;;13.00;12.25;;;;;34.14;40.63;100360.34;146607;628;46010;-71
2022/07/31 11:55:29;;;;;;;;;14.00;12.50;;;;;34.09;40.81;100359.72;146608;595;46012;-72
2022/07/31 11:58:33;;;;;;;;;12.00;12.00;;;;;34.03;41.61;100350.16;146610;575;46010;-71
2022/07/31 12:01:30;;;;;;;;;13.00;12.75;;;;;33.98;41.90;100345.91;146607;658;46012;-73
2022/07/31 12:04:27;;;;;;;;;11.25;10.75;;;;;34.01;41.89;100348.44;146609;566;46011;-70
2022/07/31 12:07:25;;;;;;;;;13.50;12.50;;;;;34.03;41.76;100341.22;146605;607;46016;-72
2022/07/31 12:10:37;;;;;;;;;11.50;10.75;;;;;33.69;41.04;100267.63;146610;636;46010;-72
2022/07/31 12:13:34;;;;;;;;;11.25;10.50;;;;;34.16;41.75;100339.59;146608;590;45016;-72
2022/07/31 12:16:29;;;;;;;;;14.25;14.25;;;;;34.16;42.31;100338.75;146608;575;46010;-71
2022/07/31 12:19:30;;;;;;;;;12.50;11.25;;;;;34.20;41.79;100332.25;146606;566;46016;-73
2022/07/31 12:22:32;;;;;;;;;11.50;11.00;;;;;34.27;41.58;100322.91;146606;570;46020;-70
2022/07/31 12:25:24;;;;;;;;;10.25;9.75;;;;;34.30;40.62;100324.53;146606;582;46012;-72
2022/07/31 12:28:23;;;;;;;;;12.75;10.50;;;;;34.28;40.80;100324.63;146610;603;45021;-69
2022/07/31 12:31:28;;;;;;;;;;;;;;;;;;;;;
2022/07/31 12:34:40;;;;;;;;;13.00;13.00;;;;;34.26;40.84;100321.16;146610;699;46010;-70
2022/07/31 12:37:49;;;;;;;;;17.50;15.25;;;;;34.32;41.22;100320.81;146606;618;46014;-71
2022/07/31 12:40:47;;;;;;;;;17.00;15.75;;;;;34.44;40.86;100311.22;146607;596;46020;-72
2022/07/31 12:43:53;;;;;;;;;14.75;14.75;;;;;33.60;40.90;100147.12;146607;584;45016;-75
2022/07/31 12:46:52;;;;;;;;;15.75;15.00;;;;;34.49;41.29;100301.06;146608;565;46020;-74
2022/07/31 12:49:51;;;;;;;;;11.50;11.50;;;;;34.49;41.31;100290.31;146606;638;46017;-74
2022/07/31 12:52:54;;;;;;;;;16.25;16.25;;;;;34.51;41.51;100291.06;146607;569;46010;-75
2022/07/31 12:55:47;;;;;;;;;17.50;17.00;;;;;34.54;41.93;100284.69;146606;625;46016;-73
2022/07/31 12:58:43;;;;;;;;;14.25;13.25;;;;;34.55;41.17;100286.41;146606;611;47010;-75
2022/07/31 13:01:40;;;;;;;;;17.75;14.50;;;;;34.52;41.36;100278.47;146608;658;45016;-75
2022/07/31 13:04:37;;;;;;;;;11.75;11.75;;;;;34.55;41.50;100270.25;146607;574;46021;-73
2022/07/31 13:07:35;;;;;;;;;14.50;12.50;;;;;34.52;41.11;100265.91;146605;621;46016;-73
2022/07/31 13:10:50;;;;;;;;;17.00;16.50;;;;;34.47;41.50;100267.97;146609;580;46012;-74
2022/07/31 13:13:47;;;;;;;;;16.25;15.25;;;;;34.43;41.00;100272.66;146605;592;46012;-74
2022/07/31 13:16:53;;;;;;;;;14.75;14.50;;;;;34.39;40.90;100267.53;146610;625;46012;-71
2022/07/31 13:19:45;;;;;;;;;16.50;15.00;;;;;34.36;40.16;100263.16;146604;582;46923;-72
2022/07/31 13:22:37;;;;;;;;;13.75;12.75;;;;;34.34;40.82;100251.63;146607;623;46010;-73
2022/07/31 13:25:36;;;;;;;;;14.75;14.75;;;;;34.29;39.87;100253.69;146608;596;45016;-74
2022/07/31 13:28:39;;;;;;;;;12.50;12.50;;;;;34.24;40.31;100250.41;146607;590;46021;-74
2022/07/31 13:31:34;;;;;;;;;13.25;13.25;;;;;34.15;39.55;100249.09;146606;576;46016;-75
2022/07/31 13:34:27;;;;;;;;;16.75;15.75;;;;;34.13;40.20;100244.75;146607;645;46021;-74
2022/07/31 13:37:22;;;;;;;;;14.00;13.75;;;;;34.11;41.13;100241.25;146606;589;46016;-73
2022/07/31 13:40:24;;;;;;;;;13.50;13.50;;;;;34.16;40.58;100241.88;146610;576;46010;-74
2022/07/31 13:43:38;;;;;;;;;15.50;15.50;;;;;34.18;40.74;100240.00;146606;564;46019;-74
2022/07/31 13:46:32;;;;;;;;;14.75;13.50;;;;;34.15;40.35;100248.22;146609;603;46050;-72
2022/07/31 13:49:36;;;;;;;;;14.50;13.75;;;;;34.14;40.65;100241.94;146608;617;46013;-72
2022/07/31 13:52:32;;;;;;;;;14.50;14.50;;;;;34.15;42.08;100237.47;146608;635;46010;-74
2022/07/31 13:55:27;;;;;;;;;14.25;13.25;;;;;34.11;41.83;100236.72;146608;580;46013;-77
2022/07/31 13:58:28;;;;;;;;;15.50;15.50;;;;;34.10;40.91;100229.63;146610;582;46012;-75
2022/07/31 14:01:23;;;;;;;;;16.75;16.50;;;;;34.10;41.52;100232.31;146604;576;46016;-72
2022/07/31 14:04:21;;;;;;;;;14.50;14.50;;;;;34.11;42.02;100235.88;146609;590;46020;-71
2022/07/31 14:07:34;;;;;;;;;13.50;13.25;;;;;34.13;41.59;100229.47;146604;611;46016;-70
2022/07/31 14:10:37;;;;;;;;;15.50;14.50;;;;;34.12;40.62;100219.66;146608;600;46021;-71
2022/07/31 14:13:37;;;;;;;;;16.75;15.25;;;;;34.06;41.32;100221.81;146608;603;45016;-71
2022/07/31 14:16:35;;;;;;;;;11.25;11.25;;;;;34.08;41.94;100234.22;146610;626;46010;-72
2022/07/31 14:19:30;;;;;;;;;14.00;14.00;;;;;34.07;42.18;100224.41;146605;609;46017;-71
2022/07/31 14:22:22;;;;;;;;;16.00;14.25;;;;;34.02;41.76;100223.81;146606;637;46020;-71
2022/07/31 14:25:28;;;;;;;;;15.75;15.00;;;;;34.01;42.08;100227.41;146607;564;46016;-71
2022/07/31 14:28:26;;;;;;;;;14.50;14.50;;;;;34.02;41.77;100230.06;146607;611;46020;-72
2022/07/31 14:31:19;;;;;;;;;16.50;16.50;;;;;34.02;41.74;100229.19;146607;640;46012;-71
2022/07/31 14:34:13;;;;;;;;;15.00;12.75;;;;;34.03;42.08;100222.84;146608;652;46021;-71
2022/07/31 14:37:05;;;;;;;;;15.25;14.25;;;;;34.02;41.48;100224.69;146606;610;46012;-73
2022/07/31 14:40:09;;;;;;;;;14.75;14.00;;;;;33.99;40.91;100222.12;146609;574;46010;-71
2022/07/31 14:43:18;;;;;;;;;14.75;14.00;;;;;33.89;41.12;100223.53;146605;610;46012;-72
2022/07/31 14:46:24;;;;;;;;;12.75;12.75;;;;;33.78;41.73;100217.88;146608;583;46020;-71
2022/07/31 14:49:19;;;;;;;;;11.00;10.25;;;;;33.77;41.59;100214.34;146605;620;46017;-71
2022/07/31 14:52:25;;;;;;;;;12.50;11.50;;;;;33.75;41.36;100218.03;146605;571;46020;-70
2022/07/31 14:55:27;;;;;;;;;13.00;13.00;;;;;33.65;41.72;100219.50;146605;566;46016;-71
2022/07/31 14:58:23;;;;;;;;;16.50;12.50;;;;;33.45;41.96;100207.91;146608;571;46020;-71
2022/07/31 15:01:28;;;;;;;;;13.50;13.25;;;;;33.32;42.49;100209.50;146607;596;45016;-70
2022/07/31 15:04:20;;;;;;;;;11.75;10.75;;;;;33.25;43.05;100208.94;146609;607;46020;-71
2022/07/31 15:07:21;;;;;;;;;12.50;12.50;;;;;33.22;43.00;100208.25;146602;571;47921;-71
2022/07/31 15:10:30;;;;;;;;;12.00;10.50;;;;;32.27;43.11;100050.03;146608;564;46011;-72
2022/07/31 15:13:29;;;;;;;;;12.25;12.25;;;;;33.15;43.70;100198.72;146603;569;46016;-71
2022/07/31 15:16:27;;;;;;;;;12.50;12.50;;;;;33.10;44.30;100193.59;146609;654;45020;-73
2022/07/31 15:19:36;;;;;;;;;14.00;14.00;;;;;32.10;43.13;100040.13;146607;610;46012;-73
2022/07/31 15:22:36;;;;;;;;;12.25;12.25;;;;;32.93;43.29;100194.44;146607;563;46012;-75
2022/07/31 15:25:32;;;;;;;;;10.75;10.75;;;;;32.82;44.11;100192.25;146607;668;46013;-74
2022/07/31 15:28:27;;;;;;;;;13.00;11.50;;;;;32.67;44.60;100191.19;146609;580;46010;-72
2022/07/31 15:31:25;;;;;;;;;13.00;12.75;;;;;32.58;44.89;100182.72;146604;570;46017;-74
2022/07/31 15:34:22;;;;;;;;;15.25;14.50;;;;;32.52;44.78;100170.47;146609;642;46020;-73
2022/07/31 15:37:22;;;;;;;;;14.75;12.75;;;;;32.54;44.49;100171.28;146606;601;46016;-73
2022/07/31 15:40:24;;;;;;;;;13.75;12.75;;;;;32.58;43.95;100178.22;146610;622;46012;-74
2022/07/31 15:43:20;;;;;;;;;12.00;12.00;;;;;32.60;44.35;100175.47;146604;580;46012;-79
2022/07/31 15:46:25;;;;;;;;;14.00;12.75;;;;;32.58;43.59;100171.97;146607;600;46020;-78
2022/07/31 15:49:26;;;;;;;;;12.00;11.75;;;;;32.53;44.01;100169.53;146606;599;46012;-77
2022/07/31 15:52:19;;;;;;;;;11.00;9.00;;;;;32.50;44.23;100185.78;146607;628;46020;-76
2022/07/31 15:55:21;;;;;;;;;14.00;11.50;;;;;32.46;44.12;100177.94;146606;605;46017;-76
2022/07/31 15:58:13;;;;;;;;;13.00;13.00;;;;;32.38;44.70;100172.94;146608;596;46020;-77
2022/07/31 16:01:18;;;;;;;;;13.00;12.25;;;;;32.31;44.01;100174.19;146603;571;46012;-78
2022/07/31 16:04:16;;;;;;;;;13.25;13.25;;;;;32.29;44.09;100174.22;146606;656;46021;-78
2022/07/31 16:07:14;;;;;;;;;10.00;10.00;;;;;32.30;45.03;100169.72;146608;563;46012;-78
2022/07/31 16:10:13;;;;;;;;;15.25;14.25;;;;;32.37;44.50;100169.37;146608;597;45049;-76
2022/07/31 16:13:19;;;;;;;;;;;;;;;;;;;;;
2022/07/31 16:16:13;;;;;;;;;12.25;12.25;;;;;32.47;42.99;100171.66;146608;664;46010;-73
2022/07/31 16:19:05;;;;;;;;;11.75;11.50;;;;;32.44;43.76;100169.97;146606;570;46016;-72
2022/07/31 16:22:00;;;;;;;;;14.25;13.00;;;;;32.42;44.50;100180.75;146605;599;46020;-71
2022/07/31 16:24:57;;;;;;;;;14.75;14.25;;;;;32.39;44.09;100178.22;146607;609;46012;-72
2022/07/31 16:27:55;;;;;;;;;16.25;12.25;;;;;32.34;44.87;100184.75;146607;570;46020;-71
2022/07/31 16:30:49;;;;;;;;;9.50;9.50;;;;;32.25;45.57;100177.16;146605;582;46015;-71
2022/07/31 16:34:40;;;;;;;;;14.25;14.25;;;;;32.17;45.39;100188.22;146609;565;46010;-81
2022/07/31 16:38:06;;;;;;;;;12.00;11.50;;;;;31.01;45.66;100001.41;146609;580;45925;-80
2022/07/31 16:41:41;;;;;;;;;;;;;;;;;;;;;
2022/07/31 16:45:34;;;;;;;;;;;;;;;;;;;;;
2022/07/31 16:49:24;;;;;;;;;10.50;10.50;;;;;30.65;47.60;99990.47;146612;586;45021;-85
2022/07/31 16:52:56;;;;;;;;;11.25;11.25;;;;;31.83;47.78;100199.59;146609;671;45923;-86
2022/07/31 16:56:53;;;;;;;;;;;;;;;;;;;;;
2022/07/31 17:00:45;;;;;;;;;;;;;;;;;;;;;
2022/07/31 17:04:25;;;;;;;;;13.50;12.75;;;;;30.04;48.28;99940.44;146611;577;45021;-81
2022/07/31 17:07:50;;;;;;;;;16.50;14.75;;;;;30.58;48.23;100040.72;146609;570;45018;-78
2022/07/31 17:15:40;;;;;;;;;12.75;11.50;;;;;31.38;48.99;100212.28;146608;576;45928;-82
2022/07/31 17:20:21;;;;;;;;;;;;;;;;;;;;;
2022/07/31 17:24:08;;;;;;;;;15.00;14.25;;;;;30.35;49.07;100068.44;146624;628;45929;-76
2022/07/31 17:27:33;;;;;;;;;14.00;13.25;;;;;31.22;49.74;100230.78;146629;591;44020;-78
2022/07/31 17:31:08;;;;;;;;;;;;;;;;;;;;;
2022/07/31 17:34:53;;;;;;;;;16.00;14.25;;;;;31.18;49.09;100244.34;146627;577;45022;-86
2022/07/31 17:38:40;;;;;;;;;15.50;14.00;;;;;30.38;49.00;100111.97;146626;610;45016;-84
2022/07/31 17:42:34;;;;;;;;;;;;;;;;;;;;;
2022/07/31 17:46:20;;;;;;;;;13.25;12.75;;;;;30.34;48.70;100113.03;146625;571;45016;-79
2022/07/31 17:50:25;;;;;;;;;15.75;15.75;;;;;30.32;49.12;100114.00;146629;594;44020;-81
2022/07/31 17:53:51;;;;;;;;;15.00;15.00;;;;;30.33;49.10;100103.25;146625;609;45016;-85
2022/07/31 17:57:28;;;;;;;;;17.75;14.25;;;;;31.19;49.31;100254.16;146628;600;45020;-78
2022/07/31 18:09:01;;;;;;;;;14.75;14.00;;;;;30.12;49.68;100098.72;146626;574;45016;-81
2022/07/31 18:12:44;;;;;;;;;;;;;;;;;;;;;
2022/07/31 18:16:16;;;;;;;;;15.50;14.25;;;;;30.17;50.17;100126.16;146623;583;45926;-82
2022/07/31 18:24:43;;;;;;;;;15.75;15.00;;;;;30.07;49.64;100131.00;146624;573;45017;-78
2022/07/31 18:28:27;;;;;;;;;19.25;18.00;;;;;30.93;50.39;100281.97;146628;569;44020;-81
2022/07/31 18:32:11;;;;;;;;;;;;;;;;;;;;;
2022/07/31 18:35:40;;;;;;;;;17.25;17.25;;;;;30.96;51.95;100297.91;146627;625;45020;-84
2022/07/31 18:43:24;;;;;;;;;15.00;14.00;;;;;30.03;50.58;100161.44;146626;641;46020;-82
2022/07/31 18:47:17;;;;;;;;;13.25;13.25;;;;;29.86;50.35;100132.66;146625;703;45016;-81
2022/07/31 18:51:28;;;;;;;;;;;;;;;;;;;;;
2022/07/31 18:55:24;;;;;;;;;17.00;15.50;;;;;30.85;50.13;100293.00;146627;691;44017;-91
2022/07/31 18:59:24;;;;;;;;;15.00;15.00;;;;;29.98;50.07;100135.81;146627;612;45020;-90
2022/07/31 19:02:53;;;;;;;;;16.75;16.50;;;;;31.03;49.96;100329.75;146623;565;45924;-80
2022/07/31 19:06:49;;;;;;;;;;;;;;;;;;;;;
2022/07/31 19:10:18;;;;;;;;;14.50;14.50;;;;;31.08;49.80;100324.19;146625;613;45017;-77
2022/07/31 19:14:13;;;;;;;;;17.75;16.00;;;;;31.13;50.01;100332.94;146627;582;45020;-79
2022/07/31 19:17:47;;;;;;;;;17.75;13.50;;;;;31.15;49.99;100339.06;146625;592;45017;-84
2022/07/31 19:21:41;;;;;;;;;15.50;14.25;;;;;31.17;49.81;100341.72;146627;606;45022;-91
2022/07/31 19:25:24;;;;;;;;;14.75;13.50;;;;;30.35;49.63;100205.69;146620;577;45923;-81
2022/07/31 19:29:03;;;;;;;;;15.00;13.75;;;;;29.66;49.58;100098.69;146626;564;45030;-83
2022/07/31 19:32:36;;;;;;;;;13.25;12.75;;;;;31.04;49.97;100344.00;146622;573;46011;-86
2022/07/31 19:36:34;;;;;;;;;;;;;;;;;;;;;
2022/07/31 19:40:13;;;;;;;;;;;;;;;;;;;;;
2022/07/31 19:44:12;;;;;;;;;;;;;;;;;;;;;
2022/07/31 19:48:06;;;;;;;;;;;;;;;;;;;;;
2022/07/31 19:51:53;;;;;;;;;14.75;13.75;;;;;30.85;50.05;100367.94;146627;581;45020;-93
2022/07/31 19:55:48;;;;;;;;;20.50;18.50;;;;;30.88;50.11;100359.78;146624;579;45018;-86
2022/07/31 19:59:44;;;;;;;;;;;;;;;;;;;;;
2022/07/31 20:03:37;;;;;;;;;15.25;15.25;;;;;28.94;49.61;100017.59;146623;643;45921;-77
2022/07/31 20:07:14;;;;;;;;;14.75;13.50;;;;;30.13;49.79;100220.78;146628;599;44021;-77
2022/07/31 20:14:45;;;;;;;;;16.00;15.75;;;;;30.16;49.53;100220.69;146624;655;45020;-76
2022/07/31 20:18:22;;;;;;;;;16.75;14.75;;;;;31.01;49.40;100361.06;146625;635;45921;-75
2022/07/31 20:21:54;;;;;;;;;17.00;17.00;;;;;30.98;50.15;100365.66;146622;586;45022;-75
2022/07/31 20:25:24;;;;;;;;;15.50;14.00;;;;;30.93;49.76;100362.28;146616;669;45018;-76
2022/07/31 20:29:02;;;;;;;;;15.75;13.50;;;;;30.92;49.63;100360.53;146619;564;45020;-76
2022/07/31 20:32:40;;;;;;;;;;;;;;;;;;;;;
2022/07/31 20:36:43;;;;;;;;;15.00;15.00;;;;;30.80;49.80;100365.44;146619;670;45020;-75
2022/07/31 20:40:28;;;;;;;;;15.00;14.75;;;;;29.87;49.86;100235.09;146616;574;45018;-75
2022/07/31 20:44:24;;;;;;;;;;;;;;;;;;;;;
2022/07/31 20:47:58;;;;;;;;;15.25;14.25;;;;;30.67;50.18;100368.59;146615;569;45923;-75
2022/07/31 20:51:35;;;;;;;;;16.00;16.00;;;;;30.64;50.59;100360.69;146615;596;45020;-79
2022/07/31 20:55:38;;;;;;;;;;;;;;;;;;;;;
2022/07/31 20:59:26;;;;;;;;;14.25;12.50;;;;;29.83;49.99;100229.00;146619;578;45022;-82
2022/07/31 21:03:38;;;;;;;;;13.75;13.00;;;;;30.68;50.14;100363.19;146615;571;45925;-80
2022/07/31 21:11:05;;;;;;;;;16.25;16.25;;;;;30.69;50.66;100364.09;146606;577;46016;-76
2022/07/31 21:14:12;;;;;;;;;14.25;14.00;;;;;30.59;50.52;100353.72;146613;588;47011;-76
2022/07/31 21:17:08;;;;;;;;;15.00;14.00;;;;;29.98;50.95;100270.34;146610;672;46016;-80
2022/07/31 21:20:19;;;;;;;;;16.75;16.75;;;;;30.39;50.55;100350.91;146614;571;46010;-80
2022/07/31 21:23:15;;;;;;;;;13.50;13.50;;;;;30.34;51.38;100360.88;146607;626;46012;-79
2022/07/31 21:26:11;;;;;;;;;16.25;14.25;;;;;30.26;51.15;100368.31;146609;563;46012;-79
2022/07/31 21:29:07;;;;;;;;;18.25;16.75;;;;;30.15;51.55;100374.00;146605;599;46017;-78
2022/07/31 21:32:03;;;;;;;;;16.00;16.00;;;;;29.96;53.08;100378.25;146609;635;46017;-80
2022/07/31 21:35:09;;;;;;;;;19.25;16.75;;;;;29.72;52.02;100380.84;146606;572;46016;-79
2022/07/31 21:38:03;;;;;;;;;18.50;16.75;;;;;29.50;52.49;100377.94;146610;573;46010;-77
2022/07/31 21:41:00;;;;;;;;;15.50;15.50;;;;;29.40;51.69;100380.03;146606;646;46016;-77
2022/07/31 21:44:11;;;;;;;;;13.75;13.00;;;;;29.29;51.70;100376.84;146609;654;46010;-77
2022/07/31 21:47:09;;;;;;;;;18.50;18.00;;;;;29.21;51.34;100379.75;146607;567;46014;-75
2022/07/31 21:50:22;;;;;;;;;15.50;13.00;;;;;29.12;50.35;100377.34;146607;651;47010;-78
2022/07/31 21:53:17;;;;;;;;;14.75;13.75;;;;;29.00;51.23;100381.28;146608;572;46033;-73
2022/07/31 21:56:17;;;;;;;;;15.00;14.75;;;;;28.97;51.02;100381.38;146607;585;48012;-74
2022/07/31 21:59:14;;;;;;;;;14.25;14.25;;;;;28.98;50.76;100380.44;146607;640;46012;-74
2022/07/31 22:02:11;;;;;;;;;14.75;13.50;;;;;28.97;50.18;100381.38;146608;603;46020;-74